sensor_id;sensor_type;location;lat;lon;timestamp;pressure;altitude;pressure_sealevel;temperature;humidity
21879;BME280;27908;42.708;23.278;2023-05-23T09:52:48;65792.00;;;22.12;63.75
21879;BME280;27908;42.708;23.278;2023-05-23T09:55:15;65849.84;;;22.19;66.98
21879;BME280;27908;42.708;23.278;2023-05-23T09:57:42;65826.84;;;22.44;61.12
21879;BME280;27908;42.708;23.278;2023-05-23T10:00:09;65904.88;;;22.78;65.92
21879;BME280;27908;42.708;23.278;2023-05-23T10:02:57;66033.44;;;23.08;64.90
21879;BME280;27908;42.708;23.278;2023-05-23T10:08:01;66014.44;;;23.24;61.08
21879;BME280;27908;42.708;23.278;2023-05-23T10:10:32;66103.84;;;23.45;61.37
21879;BME280;27908;42.708;23.278;2023-05-23T10:13:01;66121.03;;;23.46;55.06
21879;BME280;27908;42.708;23.278;2023-05-23T10:15:34;66105.88;;;23.42;53.94
21879;BME280;27908;42.708;23.278;2023-05-23T10:18:09;66143.47;;;23.48;56.28
21879;BME280;27908;42.708;23.278;2023-05-23T10:20:38;66203.13;;;23.89;61.60
21879;BME280;27908;42.708;23.278;2023-05-23T10:23:06;66251.00;;;23.85;54.04
21879;BME280;27908;42.708;23.278;2023-05-23T10:25:31;66213.06;;;23.91;51.42
21879;BME280;27908;42.708;23.278;2023-05-23T10:27:58;66257.25;;;24.12;52.21
21879;BME280;27908;42.708;23.278;2023-05-23T10:30:27;66327.41;;;24.27;52.49
21879;BME280;27908;42.708;23.278;2023-05-23T10:32:54;66310.75;;;24.28;46.70
21879;BME280;27908;42.708;23.278;2023-05-23T10:41:09;66394.06;;;24.47;47.33
21879;BME280;27908;42.708;23.278;2023-05-23T10:46:07;66381.72;;;24.55;50.61
21879;BME280;27908;42.708;23.278;2023-05-23T10:48:41;66414.66;;;24.59;50.68
21879;BME280;27908;42.708;23.278;2023-05-23T10:51:08;66388.09;;;24.61;50.83
21879;BME280;27908;42.708;23.278;2023-05-23T10:53:36;66407.72;;;24.77;49.07
21879;BME280;27908;42.708;23.278;2023-05-23T10:56:09;66422.06;;;24.90;45.79
21879;BME280;27908;42.708;23.278;2023-05-23T10:58:36;66429.50;;;24.70;47.07
21879;BME280;27908;42.708;23.278;2023-05-23T11:01:12;66459.31;;;24.74;48.76
21879;BME280;27908;42.708;23.278;2023-05-23T11:12:06;66435.44;;;24.81;51.26
21879;BME280;27908;42.708;23.278;2023-05-23T11:14:33;66408.44;;;24.61;47.62
21879;BME280;27908;42.708;23.278;2023-05-23T11:16:59;66373.94;;;24.58;46.11
21879;BME280;27908;42.708;23.278;2023-05-23T11:19:26;66457.13;;;24.69;48.61
21879;BME280;27908;42.708;23.278;2023-05-23T11:22:01;66501.53;;;24.96;48.80
21879;BME280;27908;42.708;23.278;2023-05-23T11:27:14;66512.31;;;25.11;50.49
21879;BME280;27908;42.708;23.278;2023-05-23T11:29:39;66463.13;;;25.06;48.71
21879;BME280;27908;42.708;23.278;2023-05-23T11:32:11;66539.78;;;25.27;49.63
21879;BME280;27908;42.708;23.278;2023-05-23T11:34:38;66604.09;;;25.55;49.16
21879;BME280;27908;42.708;23.278;2023-05-23T11:37:03;66619.41;;;25.38;46.58
21879;BME280;27908;42.708;23.278;2023-05-23T11:39:29;66651.63;;;25.53;44.36
21879;BME280;27908;42.708;23.278;2023-05-23T11:42:02;66643.03;;;25.42;44.18
21879;BME280;27908;42.708;23.278;2023-05-23T11:44:27;66540.75;;;25.23;46.01
21879;BME280;27908;42.708;23.278;2023-05-23T11:47:03;66614.19;;;25.38;47.76
21879;BME280;27908;42.708;23.278;2023-05-23T11:49:34;66557.09;;;25.31;47.16
21879;BME280;27908;42.708;23.278;2023-05-23T11:52:03;66471.03;;;24.85;43.41
21879;BME280;27908;42.708;23.278;2023-05-23T11:54:30;66256.47;;;23.97;45.21
21879;BME280;27908;42.708;23.278;2023-05-23T11:56:56;66201.47;;;23.85;47.45
21879;BME280;27908;42.708;23.278;2023-05-23T11:59:23;66263.09;;;24.18;49.02
21879;BME280;27908;42.708;23.278;2023-05-23T12:01:50;66393.44;;;24.68;48.03
21879;BME280;27908;42.708;23.278;2023-05-23T12:04:16;66517.28;;;24.99;49.03
21879;BME280;27908;42.708;23.278;2023-05-23T12:06:41;66608.44;;;25.37;46.29
21879;BME280;27908;42.708;23.278;2023-05-23T12:09:10;66699.63;;;25.73;46.47
21879;BME280;27908;42.708;23.278;2023-05-23T12:11:36;66664.25;;;25.81;45.33
21879;BME280;27908;42.708;23.278;2023-05-23T12:14:01;66724.19;;;25.96;45.35
21879;BME280;27908;42.708;23.278;2023-05-23T12:16:33;66787.91;;;26.16;45.28
21879;BME280;27908;42.708;23.278;2023-05-23T12:19:00;66918.13;;;26.56;46.52
21879;BME280;27908;42.708;23.278;2023-05-23T12:21:32;66954.16;;;26.75;44.83
21879;BME280;27908;42.708;23.278;2023-05-23T12:24:17;66876.22;;;26.32;42.92
21879;BME280;27908;42.708;23.278;2023-05-23T12:26:54;66787.91;;;26.16;42.73
21879;BME280;27908;42.708;23.278;2023-05-23T12:29:30;66603.44;;;25.23;43.25
21879;BME280;27908;42.708;23.278;2023-05-23T12:31:57;66714.16;;;25.67;46.93
21879;BME280;27908;42.708;23.278;2023-05-23T12:34:24;66793.09;;;26.13;46.68
21879;BME280;27908;42.708;23.278;2023-05-23T12:36:53;66990.16;;;26.48;43.86
21879;BME280;27908;42.708;23.278;2023-05-23T12:39:28;66927.63;;;26.82;40.31
21879;BME280;27908;42.708;23.278;2023-05-23T12:41:55;66940.53;;;26.75;40.54
21879;BME280;27908;42.708;23.278;2023-05-23T12:44:31;67020.59;;;26.93;41.01
21879;BME280;27908;42.708;23.278;2023-05-23T12:46:56;66865.63;;;26.49;40.33
21879;BME280;27908;42.708;23.278;2023-05-23T12:49:22;66887.06;;;26.71;42.31
21879;BME280;27908;42.708;23.278;2023-05-23T12:51:47;67171.44;;;27.52;40.43
21879;BME280;27908;42.708;23.278;2023-05-23T12:54:12;67425.94;;;28.53;39.28
21879;BME280;27908;42.708;23.278;2023-05-23T12:56:38;67762.88;;;29.64;38.35
21879;BME280;27908;42.708;23.278;2023-05-23T12:59:03;68269.25;;;31.16;35.77
21879;BME280;27908;42.708;23.278;2023-05-23T13:01:29;68689.09;;;32.35;34.70
21879;BME280;27908;42.708;23.278;2023-05-23T13:03:55;68591.84;;;32.21;30.71
21879;BME280;27908;42.708;23.278;2023-05-23T13:06:20;68714.16;;;32.55;31.35
21879;BME280;27908;42.708;23.278;2023-05-23T13:08:46;68891.69;;;33.05;32.48
21879;BME280;27908;42.708;23.278;2023-05-23T13:11:12;68937.28;;;33.35;29.98
21879;BME280;27908;42.708;23.278;2023-05-23T13:13:38;69143.38;;;33.89;28.26
21879;BME280;27908;42.708;23.278;2023-05-23T13:16:04;69296.84;;;34.34;30.55
21879;BME280;27908;42.708;23.278;2023-05-23T13:18:29;69854.66;;;35.71;28.94
21879;BME280;27908;42.708;23.278;2023-05-23T13:20:55;70186.09;;;36.48;27.49
21879;BME280;27908;42.708;23.278;2023-05-23T13:23:20;70516.63;;;37.36;27.13
21879;BME280;27908;42.708;23.278;2023-05-23T13:25:45;70236.63;;;36.79;27.52
21879;BME280;27908;42.708;23.278;2023-05-23T13:28:11;70225.03;;;36.50;28.32
21879;BME280;27908;42.708;23.278;2023-05-23T13:30:36;69650.47;;;35.22;27.49
21879;BME280;27908;42.708;23.278;2023-05-23T13:33:02;69851.47;;;35.71;27.17
21879;BME280;27908;42.708;23.278;2023-05-23T13:35:27;69154.00;;;33.77;28.53
21879;BME280;27908;42.708;23.278;2023-05-23T13:37:53;68556.06;;;31.96;30.88
21879;BME280;27908;42.708;23.278;2023-05-23T13:40:19;68080.81;;;30.45;32.19
21879;BME280;27908;42.708;23.278;2023-05-23T13:42:49;67723.81;;;29.60;33.37
21879;BME280;27908;42.708;23.278;2023-05-23T13:45:15;67606.56;;;29.05;33.71
21879;BME280;27908;42.708;23.278;2023-05-23T13:47:42;67842.22;;;29.76;33.35
21879;BME280;27908;42.708;23.278;2023-05-23T13:50:08;68019.50;;;30.40;33.77
21879;BME280;27908;42.708;23.278;2023-05-23T13:52:33;68654.28;;;32.23;32.91
21879;BME280;27908;42.708;23.278;2023-05-23T13:54:59;69328.56;;;34.31;28.01
21879;BME280;27908;42.708;23.278;2023-05-23T13:57:26;69339.91;;;34.48;29.17
21879;BME280;27908;42.708;23.278;2023-05-23T13:59:51;69396.09;;;34.35;28.29
21879;BME280;27908;42.708;23.278;2023-05-23T14:02:17;68613.16;;;32.26;28.83
21879;BME280;27908;42.708;23.278;2023-05-23T14:04:42;68378.06;;;31.50;30.50
21879;BME280;27908;42.708;23.278;2023-05-23T14:07:07;68185.66;;;30.92;31.01
21879;BME280;27908;42.708;23.278;2023-05-23T14:09:33;67960.19;;;30.12;31.82
21879;BME280;27908;42.708;23.278;2023-05-23T14:11:58;67853.31;;;29.96;33.23
21879;BME280;27908;42.708;23.278;2023-05-23T14:14:24;67854.72;;;29.90;36.75
21879;BME280;27908;42.708;23.278;2023-05-23T14:16:51;67601.59;;;28.96;38.91
21879;BME280;27908;42.708;23.278;2023-05-23T14:19:17;67379.44;;;28.42;39.72
21879;BME280;27908;42.708;23.278;2023-05-23T14:21:43;67121.06;;;27.52;41.19
21879;BME280;27908;42.708;23.278;2023-05-23T14:24:08;67023.25;;;27.17;41.53
21879;BME280;27908;42.708;23.278;2023-05-23T14:26:34;66919.38;;;26.65;42.62
21879;BME280;27908;42.708;23.278;2023-05-23T14:28:59;67283.47;;;28.26;39.94
21879;BME280;27908;42.708;23.278;2023-05-23T14:31:25;67442.44;;;28.61;38.44
21879;BME280;27908;42.708;23.278;2023-05-23T14:33:50;67730.69;;;29.61;38.52
21879;BME280;27908;42.708;23.278;2023-05-23T14:36:16;67759.78;;;29.66;36.81
21879;BME280;27908;42.708;23.278;2023-05-23T14:38:41;67869.91;;;30.23;36.73
21879;BME280;27908;42.708;23.278;2023-05-23T14:41:10;68403.66;;;31.73;35.83
21879;BME280;27908;42.708;23.278;2023-05-23T14:43:35;68889.97;;;33.16;34.60
21879;BME280;27908;42.708;23.278;2023-05-23T14:46:01;69025.16;;;33.61;33.37
21879;BME280;27908;42.708;23.278;2023-05-23T14:48:26;69636.84;;;35.26;30.13
21879;BME280;27908;42.708;23.278;2023-05-23T14:50:51;69726.19;;;35.52;29.88
21879;BME280;27908;42.708;23.278;2023-05-23T14:53:17;69819.09;;;35.61;28.88
21879;BME280;27908;42.708;23.278;2023-05-23T14:55:46;69987.09;;;36.28;29.14
21879;BME280;27908;42.708;23.278;2023-05-23T14:58:11;70241.13;;;36.95;27.58
21879;BME280;27908;42.708;23.278;2023-05-23T15:00:36;70213.22;;;36.79;26.70
21879;BME280;27908;42.708;23.278;2023-05-23T15:03:04;69120.22;;;33.80;30.89
21879;BME280;27908;42.708;23.278;2023-05-23T15:05:30;69437.88;;;34.70;30.63
21879;BME280;27908;42.708;23.278;2023-05-23T15:07:55;70053.56;;;36.49;28.64
21879;BME280;27908;42.708;23.278;2023-05-23T15:10:21;69486.34;;;35.11;29.02
21879;BME280;27908;42.708;23.278;2023-05-23T15:12:46;69376.91;;;34.58;30.06
21879;BME280;27908;42.708;23.278;2023-05-23T15:15:11;69608.19;;;35.27;29.50
21879;BME280;27908;42.708;23.278;2023-05-23T15:17:37;69804.94;;;35.89;28.23
21879;BME280;27908;42.708;23.278;2023-05-23T15:20:03;69930.38;;;35.87;28.30
21879;BME280;27908;42.708;23.278;2023-05-23T15:22:28;70121.72;;;36.60;28.58
21879;BME280;27908;42.708;23.278;2023-05-23T15:24:54;69939.75;;;36.16;29.26
21879;BME280;27908;42.708;23.278;2023-05-23T15:27:19;69945.78;;;36.10;28.35
21879;BME280;27908;42.708;23.278;2023-05-23T15:29:48;69315.91;;;34.46;29.27
21879;BME280;27908;42.708;23.278;2023-05-23T15:32:13;69165.22;;;33.92;30.64
21879;BME280;27908;42.708;23.278;2023-05-23T15:34:38;69222.06;;;34.21;30.13
21879;BME280;27908;42.708;23.278;2023-05-23T15:37:04;69296.25;;;34.45;29.89
21879;BME280;27908;42.708;23.278;2023-05-23T15:39:29;69141.84;;;34.04;30.42
21879;BME280;27908;42.708;23.278;2023-05-23T15:41:55;69106.19;;;33.74;30.48
21879;BME280;27908;42.708;23.278;2023-05-23T15:44:20;69008.81;;;33.63;31.00
21879;BME280;27908;42.708;23.278;2023-05-23T15:46:50;69407.38;;;34.76;30.79
21879;BME280;27908;42.708;23.278;2023-05-23T15:49:16;69447.25;;;34.90;29.81
21879;BME280;27908;42.708;23.278;2023-05-23T15:51:43;69381.59;;;34.69;29.82
21879;BME280;27908;42.708;23.278;2023-05-23T15:54:09;69609.63;;;35.23;29.60
21879;BME280;27908;42.708;23.278;2023-05-23T15:56:35;69485.28;;;34.98;29.25
21879;BME280;27908;42.708;23.278;2023-05-23T15:59:00;69391.25;;;34.59;29.34
21879;BME280;27908;42.708;23.278;2023-05-23T16:01:26;69251.31;;;34.36;29.48
21879;BME280;27908;42.708;23.278;2023-05-23T16:03:51;68982.31;;;33.63;29.78
21879;BME280;27908;42.708;23.278;2023-05-23T16:06:17;68835.75;;;33.38;30.37
21879;BME280;27908;42.708;23.278;2023-05-23T16:08:42;68788.47;;;33.05;30.74
21879;BME280;27908;42.708;23.278;2023-05-23T16:11:08;68869.53;;;33.36;30.66
21879;BME280;27908;42.708;23.278;2023-05-23T16:13:33;69143.28;;;34.01;29.38
21879;BME280;27908;42.708;23.278;2023-05-23T16:15:58;69182.00;;;34.14;28.91
21879;BME280;27908;42.708;23.278;2023-05-23T16:18:24;69276.19;;;34.34;29.19
21879;BME280;27908;42.708;23.278;2023-05-23T16:20:49;69276.47;;;34.42;29.83
21879;BME280;27908;42.708;23.278;2023-05-23T16:23:15;69393.88;;;34.71;29.85
21879;BME280;27908;42.708;23.278;2023-05-23T16:25:40;69139.03;;;34.13;29.60
21879;BME280;27908;42.708;23.278;2023-05-23T16:28:07;69571.00;;;35.15;30.55
21879;BME280;27908;42.708;23.278;2023-05-23T16:30:32;69445.69;;;34.91;29.88
21879;BME280;27908;42.708;23.278;2023-05-23T16:32:58;69408.66;;;34.82;29.32
21879;BME280;27908;42.708;23.278;2023-05-23T16:35:23;69311.56;;;34.56;29.35
21879;BME280;27908;42.708;23.278;2023-05-23T16:37:49;69366.47;;;34.63;29.92
21879;BME280;27908;42.708;23.278;2023-05-23T16:40:14;69279.03;;;34.39;29.47
21879;BME280;27908;42.708;23.278;2023-05-23T16:42:40;69353.31;;;34.65;29.55
21879;BME280;27908;42.708;23.278;2023-05-23T16:45:06;69170.75;;;34.11;29.37
21879;BME280;27908;42.708;23.278;2023-05-23T16:47:31;68909.59;;;33.45;30.18
21879;BME280;27908;42.708;23.278;2023-05-23T16:49:56;68887.22;;;33.42;30.32
21879;BME280;27908;42.708;23.278;2023-05-23T16:52:22;68741.94;;;32.92;31.00
21879;BME280;27908;42.708;23.278;2023-05-23T16:54:47;68805.09;;;32.97;30.79
21879;BME280;27908;42.708;23.278;2023-05-23T16:57:13;68621.88;;;32.48;32.06
21879;BME280;27908;42.708;23.278;2023-05-23T16:59:39;68550.19;;;32.24;32.36
21879;BME280;27908;42.708;23.278;2023-05-23T17:02:05;68035.00;;;30.80;34.52
21879;BME280;27908;42.708;23.278;2023-05-23T17:04:30;67879.91;;;30.23;35.68
21879;BME280;27908;42.708;23.278;2023-05-23T17:06:56;67647.72;;;29.48;36.38
21879;BME280;27908;42.708;23.278;2023-05-23T17:09:21;67358.94;;;28.42;38.46
21879;BME280;27908;42.708;23.278;2023-05-23T17:11:47;66747.81;;;26.49;41.45
21879;BME280;27908;42.708;23.278;2023-05-23T17:14:13;66677.66;;;26.20;42.48
21879;BME280;27908;42.708;23.278;2023-05-23T17:16:39;66462.00;;;25.30;44.27
21879;BME280;27908;42.708;23.278;2023-05-23T17:19:04;66394.16;;;25.05;44.75
21879;BME280;27908;42.708;23.278;2023-05-23T17:21:30;66207.22;;;24.43;46.68
21879;BME280;27908;42.708;23.278;2023-05-23T17:23:55;66221.09;;;24.30;47.41
21879;BME280;27908;42.708;23.278;2023-05-23T17:26:21;66067.16;;;23.61;48.61
21879;BME280;27908;42.708;23.278;2023-05-23T17:28:47;65939.25;;;23.10;50.98
21879;BME280;27908;42.708;23.278;2023-05-23T17:31:12;65844.50;;;22.75;51.52
21879;BME280;27908;42.708;23.278;2023-05-23T17:33:38;65818.22;;;22.58;51.02
21879;BME280;27908;42.708;23.278;2023-05-23T17:36:03;65749.91;;;22.45;52.08
21879;BME280;27908;42.708;23.278;2023-05-23T17:38:29;65716.47;;;22.33;52.01
21879;BME280;27908;42.708;23.278;2023-05-23T17:40:55;65686.00;;;22.12;53.09
21879;BME280;27908;42.708;23.278;2023-05-23T17:43:20;65616.47;;;21.81;54.33
21879;BME280;27908;42.708;23.278;2023-05-23T17:45:46;65609.00;;;21.67;53.99
21879;BME280;27908;42.708;23.278;2023-05-23T17:48:13;65555.25;;;21.48;56.96
21879;BME280;27908;42.708;23.278;2023-05-23T17:50:42;65463.16;;;21.32;58.22
21879;BME280;27908;42.708;23.278;2023-05-23T17:53:07;65457.22;;;21.14;61.38
21879;BME280;27908;42.708;23.278;2023-05-23T17:55:33;65495.00;;;21.08;62.78
21879;BME280;27908;42.708;23.278;2023-05-23T17:57:58;65446.06;;;20.97;62.86
21879;BME280;27908;42.708;23.278;2023-05-23T18:00:24;65415.78;;;20.80;64.02
21879;BME280;27908;42.708;23.278;2023-05-23T18:02:49;65329.38;;;20.53;66.70
21879;BME280;27908;42.708;23.278;2023-05-23T18:05:15;65280.31;;;20.26;66.03
21879;BME280;27908;42.708;23.278;2023-05-23T18:07:43;65194.47;;;19.94;69.12
21879;BME280;27908;42.708;23.278;2023-05-23T18:10:09;65188.63;;;19.81;71.52
21879;BME280;27908;42.708;23.278;2023-05-23T18:12:34;65158.94;;;19.68;71.08
21879;BME280;27908;42.708;23.278;2023-05-23T18:15:00;65135.00;;;19.55;73.28
21879;BME280;27908;42.708;23.278;2023-05-23T18:17:26;65082.50;;;19.35;75.55
21879;BME280;27908;42.708;23.278;2023-05-23T18:19:51;65033.63;;;19.11;77.13
21879;BME280;27908;42.708;23.278;2023-05-23T18:22:17;64999.00;;;18.71;78.78
21879;BME280;27908;42.708;23.278;2023-05-23T18:24:44;64933.66;;;18.48;82.28
21879;BME280;27908;42.708;23.278;2023-05-23T18:27:09;64921.38;;;18.15;82.86
21879;BME280;27908;42.708;23.278;2023-05-23T18:29:35;64820.59;;;18.05;87.49
21879;BME280;27908;42.708;23.278;2023-05-23T18:32:01;64793.56;;;17.84;84.31
21879;BME280;27908;42.708;23.278;2023-05-23T18:34:26;64799.03;;;17.65;83.93
21879;BME280;27908;42.708;23.278;2023-05-23T18:36:51;64793.44;;;17.74;85.89
21879;BME280;27908;42.708;23.278;2023-05-23T18:39:17;64781.53;;;17.68;83.22
21879;BME280;27908;42.708;23.278;2023-05-23T18:41:45;64762.34;;;17.59;80.64
21879;BME280;27908;42.708;23.278;2023-05-23T18:44:11;64783.53;;;17.62;80.14
21879;BME280;27908;42.708;23.278;2023-05-23T18:46:37;64776.88;;;17.68;82.46
21879;BME280;27908;42.708;23.278;2023-05-23T18:49:03;64761.75;;;17.54;84.45
21879;BME280;27908;42.708;23.278;2023-05-23T18:51:29;64711.50;;;17.28;86.45
21879;BME280;27908;42.708;23.278;2023-05-23T18:53:54;64734.13;;;17.25;87.09
21879;BME280;27908;42.708;23.278;2023-05-23T18:56:21;64721.31;;;17.30;88.95
21879;BME280;27908;42.708;23.278;2023-05-23T18:58:48;64701.53;;;17.14;90.27
21879;BME280;27908;42.708;23.278;2023-05-23T19:01:14;64714.81;;;17.05;91.58
21879;BME280;27908;42.708;23.278;2023-05-23T19:03:39;64626.03;;;16.89;94.81
21879;BME280;27908;42.708;23.278;2023-05-23T19:06:05;64631.66;;;16.84;94.99
21879;BME280;27908;42.708;23.278;2023-05-23T19:08:31;64617.06;;;16.68;95.40
21879;BME280;27908;42.708;23.278;2023-05-23T19:10:57;64593.38;;;16.68;96.04
21879;BME280;27908;42.708;23.278;2023-05-23T19:13:23;64561.69;;;16.42;96.11
21879;BME280;27908;42.708;23.278;2023-05-23T19:15:48;64555.06;;;16.48;96.68
21879;BME280;27908;42.708;23.278;2023-05-23T19:18:18;64557.09;;;16.45;98.08
21879;BME280;27908;42.708;23.278;2023-05-23T19:20:46;64559.69;;;16.48;98.48
21879;BME280;27908;42.708;23.278;2023-05-23T19:23:12;64539.25;;;16.14;99.58
21879;BME280;27908;42.708;23.278;2023-05-23T19:25:38;64494.03;;;16.17;100.00
21879;BME280;27908;42.708;23.278;2023-05-23T19:28:04;64503.19;;;16.09;100.00
21879;BME280;27908;42.708;23.278;2023-05-23T19:30:30;64450.06;;;15.93;100.00
21879;BME280;27908;42.708;23.278;2023-05-23T19:32:56;64389.50;;;15.50;100.00
21879;BME280;27908;42.708;23.278;2023-05-23T19:35:25;64404.91;;;15.50;100.00
21879;BME280;27908;42.708;23.278;2023-05-23T19:37:51;64418.91;;;15.63;100.00
21879;BME280;27908;42.708;23.278;2023-05-23T19:40:16;64371.44;;;15.45;100.00
21879;BME280;27908;42.708;23.278;2023-05-23T19:42:42;64372.53;;;15.51;100.00
21879;BME280;27908;42.708;23.278;2023-05-23T19:45:07;64366.00;;;15.15;100.00
21879;BME280;27908;42.708;23.278;2023-05-23T19:47:33;64326.06;;;15.29;100.00
21879;BME280;27908;42.708;23.278;2023-05-23T19:49:58;64354.38;;;15.31;100.00
21879;BME280;27908;42.708;23.278;2023-05-23T19:52:23;64361.56;;;15.33;100.00
21879;BME280;27908;42.708;23.278;2023-05-23T19:54:49;64370.72;;;15.25;100.00
21879;BME280;27908;42.708;23.278;2023-05-23T19:57:14;64353.31;;;15.30;100.00
21879;BME280;27908;42.708;23.278;2023-05-23T19:59:40;64381.53;;;15.25;100.00
21879;BME280;27908;42.708;23.278;2023-05-23T20:02:06;64318.78;;;15.17;100.00
21879;BME280;27908;42.708;23.278;2023-05-23T20:04:32;64317.72;;;15.13;100.00
21879;BME280;27908;42.708;23.278;2023-05-23T20:06:57;64293.53;;;15.10;100.00
21879;BME280;27908;42.708;23.278;2023-05-23T20:09:23;64272.28;;;14.90;100.00
21879;BME280;27908;42.708;23.278;2023-05-23T20:11:49;64290.63;;;14.75;100.00
21879;BME280;27908;42.708;23.278;2023-05-23T20:14:14;64268.91;;;14.62;100.00
21879;BME280;27908;42.708;23.278;2023-05-23T20:16:40;64253.41;;;14.50;100.00
21879;BME280;27908;42.708;23.278;2023-05-23T20:19:06;64212.28;;;14.40;100.00
21879;BME280;27908;42.708;23.278;2023-05-23T20:21:31;64195.75;;;14.29;100.00
21879;BME280;27908;42.708;23.278;2023-05-23T20:23:56;64222.41;;;14.27;100.00
21879;BME280;27908;42.708;23.278;2023-05-23T20:26:22;64194.19;;;14.27;100.00
21879;BME280;27908;42.708;23.278;2023-05-23T20:28:48;64205.47;;;14.23;100.00
21879;BME280;27908;42.708;23.278;2023-05-23T20:31:14;64191.63;;;14.25;100.00
21879;BME280;27908;42.708;23.278;2023-05-23T20:33:40;64184.41;;;14.23;100.00
21879;BME280;27908;42.708;23.278;2023-05-23T20:36:06;64185.50;;;14.29;100.00
21879;BME280;27908;42.708;23.278;2023-05-23T20:38:32;64170.06;;;14.24;100.00
21879;BME280;27908;42.708;23.278;2023-05-23T20:40:59;64148.56;;;14.28;100.00
21879;BME280;27908;42.708;23.278;2023-05-23T20:43:30;64198.31;;;14.26;100.00
21879;BME280;27908;42.708;23.278;2023-05-23T20:45:55;64160.31;;;14.22;100.00
21879;BME280;27908;42.708;23.278;2023-05-23T20:48:21;64167.44;;;14.19;100.00
21879;BME280;27908;42.708;23.278;2023-05-23T20:50:46;64133.56;;;14.14;100.00
21879;BME280;27908;42.708;23.278;2023-05-23T20:53:12;64116.91;;;13.88;100.00
21879;BME280;27908;42.708;23.278;2023-05-23T20:55:37;64132.25;;;13.86;100.00
21879;BME280;27908;42.708;23.278;2023-05-23T20:58:03;64100.94;;;13.80;100.00
21879;BME280;27908;42.708;23.278;2023-05-23T21:00:28;64131.59;;;13.70;100.00
21879;BME280;27908;42.708;23.278;2023-05-23T21:02:54;64103.44;;;13.73;100.00
21879;BME280;27908;42.708;23.278;2023-05-23T21:05:19;64056.78;;;13.70;100.00
21879;BME280;27908;42.708;23.278;2023-05-23T21:07:45;64095.59;;;13.58;100.00
21879;BME280;27908;42.708;23.278;2023-05-23T21:10:11;64055.56;;;13.49;100.00
21879;BME280;27908;42.708;23.278;2023-05-23T21:12:36;64049.44;;;13.51;100.00
21879;BME280;27908;42.708;23.278;2023-05-23T21:15:02;64079.13;;;13.47;100.00
21879;BME280;27908;42.708;23.278;2023-05-23T21:17:27;64053.81;;;13.25;100.00
21879;BME280;27908;42.708;23.278;2023-05-23T21:19:53;64026.03;;;13.14;100.00
21879;BME280;27908;42.708;23.278;2023-05-23T21:22:18;63976.88;;;13.08;100.00
21879;BME280;27908;42.708;23.278;2023-05-23T21:24:44;64009.09;;;13.10;100.00
21879;BME280;27908;42.708;23.278;2023-05-23T21:27:09;64018.75;;;13.02;100.00
21879;BME280;27908;42.708;23.278;2023-05-23T21:29:35;63984.00;;;13.05;100.00
21879;BME280;27908;42.708;23.278;2023-05-23T21:32:00;64001.88;;;13.03;100.00
21879;BME280;27908;42.708;23.278;2023-05-23T21:34:26;64001.25;;;12.90;100.00
21879;BME280;27908;42.708;23.278;2023-05-23T21:36:51;63970.66;;;13.02;100.00
21879;BME280;27908;42.708;23.278;2023-05-23T21:39:17;64004.47;;;13.05;100.00
21879;BME280;27908;42.708;23.278;2023-05-23T21:41:42;64046.50;;;13.11;100.00
21879;BME280;27908;42.708;23.278;2023-05-23T21:44:08;63988.13;;;13.09;100.00
21879;BME280;27908;42.708;23.278;2023-05-23T21:46:33;64007.63;;;13.13;100.00
21879;BME280;27908;42.708;23.278;2023-05-23T21:48:59;64019.84;;;13.08;100.00
21879;BME280;27908;42.708;23.278;2023-05-23T21:51:25;64012.59;;;12.98;100.00
21879;BME280;27908;42.708;23.278;2023-05-23T21:53:51;64010.09;;;13.06;100.00
21879;BME280;27908;42.708;23.278;2023-05-23T21:56:16;64015.75;;;13.06;100.00
21879;BME280;27908;42.708;23.278;2023-05-23T21:58:42;63982.47;;;13.06;100.00
21879;BME280;27908;42.708;23.278;2023-05-23T22:01:07;63999.25;;;12.95;100.00
21879;BME280;27908;42.708;23.278;2023-05-23T22:03:33;63959.25;;;12.84;100.00
21879;BME280;27908;42.708;23.278;2023-05-23T22:05:58;63971.06;;;12.90;100.00
21879;BME280;27908;42.708;23.278;2023-05-23T22:08:24;63971.06;;;12.90;100.00
21879;BME280;27908;42.708;23.278;2023-05-23T22:10:49;63967.47;;;12.89;100.00
21879;BME280;27908;42.708;23.278;2023-05-23T22:13:15;63957.72;;;12.85;100.00
21879;BME280;27908;42.708;23.278;2023-05-23T22:15:41;63956.66;;;12.81;100.00
21879;BME280;27908;42.708;23.278;2023-05-23T22:18:07;63968.88;;;12.76;100.00
21879;BME280;27908;42.708;23.278;2023-05-23T22:20:32;63904.84;;;12.69;100.00
21879;BME280;27908;42.708;23.278;2023-05-23T22:23:02;63937.06;;;12.68;100.00
21879;BME280;27908;42.708;23.278;2023-05-23T22:25:28;63969.28;;;12.67;100.00
21879;BME280;27908;42.708;23.278;2023-05-23T22:27:57;64071.41;;;12.54;100.00
21879;BME280;27908;42.708;23.278;2023-05-23T22:30:25;63903.16;;;12.50;100.00
21879;BME280;27908;42.708;23.278;2023-05-23T22:32:51;63874.25;;;12.22;100.00
21879;BME280;27908;42.708;23.278;2023-05-23T22:35:16;63869.16;;;12.22;100.00
21879;BME280;27908;42.708;23.278;2023-05-23T22:40:25;63887.94;;;12.11;100.00
21879;BME280;27908;42.708;23.278;2023-05-23T22:42:51;63855.28;;;12.14;100.00
21879;BME280;27908;42.708;23.278;2023-05-23T22:45:16;63842.41;;;12.04;100.00
21879;BME280;27908;42.708;23.278;2023-05-23T22:47:41;63833.16;;;12.00;100.00
21879;BME280;27908;42.708;23.278;2023-05-23T22:50:07;63851.00;;;11.95;100.00
21879;BME280;27908;42.708;23.278;2023-05-23T22:52:33;63840.72;;;11.88;100.00
21879;BME280;27908;42.708;23.278;2023-05-23T22:54:59;63836.13;;;11.88;100.00
21879;BME280;27908;42.708;23.278;2023-05-23T22:57:24;63860.25;;;11.99;100.00
21879;BME280;27908;42.708;23.278;2023-05-23T22:59:50;63864.72;;;11.86;100.00